LFBA/AGF METAR and TAF weather

Enter ICAO airport designator
Station Type Date Time Source
LFBA METAR 2022/11/30 18:00 UTC NOAA

LFBA 301800Z AUTO 36002KT 9000 NSC 02/02 Q1018 BECMG 3000 BR BKN004


Station Type Date Time Source
LFBA Decoded METAR 2022/11/30 18:00 UTC NOAA

Agen, France (LFBA) 44-11N 000-36E 60M
Nov 30, 2022 - 01:00 PM EST / 2022.11.30 1800 UTC
Wind: from the N (360 degrees) at 2 MPH (2 KT):0
Visibility: 5 mile(s):0
Temperature: 35 F (2 C)
Dew Point: 35 F (2 C)
Relative Humidity: 100%
Pressure (altimeter): 30.06 in. Hg (1018 hPa)
ob: LFBA 301800Z AUTO 36002KT 9000 NSC 02/02 Q1018 BECMG 3000 BR BKN004
cycle: 18

Station Type Date Time Source
LFBA TAF 2014/12/22 20:03 UTC NOAA

TAF
AMD TAF
AMD LFBA 222037Z 2220/2224 12007KT 0400 FG VV///
TEMPO 2220/2224 0100 PROB30
TEMPO 2222/2224 FZFG

Example: see airport list